AirNav   Everest Fuels
 
 1605 users online  

7FL8 Dragonfly Airport
Fort Pierce, Florida, USA

GOING TO FORT PIERCE?


FAA INFORMATION EFFECTIVE 07 OCTOBER 2021

Location

FAA Identifier: 7FL8
Lat/Long: 27-26-38.1410N 080-33-54.2000W
27-26.635683N 080-33.903333W
27.4439281,-80.5650556
(estimated)
Elevation: 25 ft. / 8 m (estimated)
Variation: 03W (1985)
From city: 13 miles W of FORT PIERCE, FL
Time zone: UTC -4 (UTC -5 during Standard Time)
Zip code: 34945

Airport Operations

Airport use: Private use. Permission required prior to landing
Activation date: 08/1991
Control tower: no
ARTCC: MIAMI CENTER
FSS: MIAMI FLIGHT SERVICE STATION
Attendance: UNATNDD
Wind indicator: yes
Segmented circle: no

Airport Communications

WX ASOS at FPR (11 nm E): PHONE 772-489-4281
WX ASOS at VRB (15 nm NE): 120.575 (772-978-9535)
WX AWOS-3 at OBE (19 nm SW): 118.675 (863-467-1148)

Nearby radio navigation aids

VOR radial/distance  VOR name  Freq  Var
TRVr203/14.6TREASURE VORTAC117.3007W
MLBr182/39.9MELBOURNE VOR/DME115.8507W

 
NDB name  Hdg/Dist  Freq  Var  ID
FORT PIERCE263/10.527507WFPR ..-. .--. .-.
UNITED344/34.440505WUTX ..- - -..-

Airport Services

Runway Information

Runway 11/29

Dimensions: 2000 x 75 ft. / 610 x 23 m
Surface: turf, in good condition
Runway edge markings: 11/29 THRS ARE MKD WITH THR MARKERS; EDGES NOT MKD.
RUNWAY 11  RUNWAY 29
Traffic pattern: leftleft
Displaced threshold: no200 ft.

Airport Ownership and Management from official FAA records

Ownership: Privately-owned
Owner: 4H RANCH, INC.
PO BOX 14920
FT PIERCE, FL 34979-2909
Phone 772-216-4270
Manager: PETER HARRISON
PO BOX 14920
FT PIERCE, FL 34979-2909
Phone 772-216-4270

Airport Operational Statistics

Aircraft based on the field: 1
Single engine airplanes: 1
    

Additional Remarks

FOR CD CTC PALM BEACH APCH AT 561-275-1430

Instrument Procedures

There are no published instrument procedures at 7FL8.

Some nearby airports with instrument procedures:

KFPR - Treasure Coast International Airport (11 nm E)
KVRB - Vero Beach Regional Airport (15 nm NE)
KOBE - Okeechobee County Airport (19 nm SW)
X26 - Sebastian Municipal Airport (22 nm N)
KSUA - Witham Field Airport (24 nm SE)
 
Loc | Ops | Rwys | IFR | FBO | Links
Com | Nav | Svcs | Stats | Notes


 
Area around 7FL8 (Dragonfly Airport)
 
Road maps at: MapQuest Bing Google
 
Aerial photo
No photo
 
Sectional chart

 
Airport distance calculator
Flying to Dragonfly Airport? Find the distance to fly.

From to 7FL8

Sunrise and sunset
Times for 19-Oct-2021
 Local
(UTC-4)
 Zulu
(UTC)
Morning civil twilight07:0211:02
Sunrise07:2611:26
Sunset18:4922:49
Evening civil twilight19:1323:13

Current date and time
Zulu (UTC)  19-Oct-2021 15:03:52
Local (UTC-4)  19-Oct-2021 11:03:52
 
METAR
KFPR 
10nm E 
191453Z 07008KT 10SM BKN044 OVC060 26/17 A3015 RMK AO2 SLP208 T02560167 51017
KVRB 
15nm NE 
191453Z 08011KT 10SM SCT047 SCT060 28/17 A3016 RMK AO2 SLP213 T02830167 51020
KOBE 
19nm SW 
191455Z AUTO 05005KT 10SM CLR 26/19 A3015 RMK AO2
TAF
KFPR 
10nm E 
191124Z 1912/2012 07006KT P6SM SCT050 BKN250 FM191400 09010G15KT P6SM SCT050 SCT250 FM200000 08005KT P6SM SCT050
KVRB 
15nm NE 
191124Z 1912/2012 08006KT P6SM SCT045 BKN250 FM191500 08010G15KT P6SM SCT050 SCT250 FM200000 07005KT P6SM SCT050
NOTAMs
Click for the latest NOTAMs
NOTAMs are issued by the DoD/FAA and will open in a separate window not controlled by AirNav.

 

 
 

Would you like to see your business listed on this page?

 If your business provides an interesting product or service to pilots, flight crews, aircraft, or users of the Dragonfly Airport, you should consider listing it here.  To start the listing process, click on the button below
 
Add a business
 

Other Pages about Dragonfly Airport

Update a link
 
Copyright © AirNav, LLC. All rights reserved. Privacy Policy  Contact